UAL1048 KLAX-KDEN
Flight info
| Callsign | UAL1048 |
|---|---|
| Flight time | 1h 49m |
| Altitude | 37000 |
| Route | ORCKA5 LAS J146 DICEE BUMMP SSKII4 |
| Aircraft | B738/M-SDE2E3FGHIRWXY/LB1 |
Departure
| Time | 2026-04-26 15:03 |
|---|---|
| Airport | Los Angeles International Airport (KLAX) |
Arrival
| Time | 2026-04-26 16:53 |
|---|---|
| Airport | Denver International Airport (KDEN) |
| Time | Latitude | Longitude | Altitude | Speed | Heading |
|---|---|---|---|---|---|
| 2026-04-26 14:27 | 33.93998 | -118.40185 | 125 ft | 0 kts | 355° |
| 2026-04-26 14:51 | 33.93994 | -118.40185 | 123 ft | 2 kts | 354° |
| 2026-04-26 14:51 | 33.93976 | -118.40181 | 123 ft | 3 kts | 341° |
| 2026-04-26 14:51 | 33.93959 | -118.40171 | 123 ft | 3 kts | 318° |
| 2026-04-26 14:52 | 33.93948 | -118.40154 | 121 ft | 3 kts | 282° |
| 2026-04-26 14:52 | 33.93947 | -118.40141 | 120 ft | 0 kts | 263° |
| 2026-04-26 14:55 | 33.93946 | -118.40147 | 125 ft | 6 kts | 263° |
| 2026-04-26 14:55 | 33.93938 | -118.40231 | 121 ft | 12 kts | 263° |
| 2026-04-26 14:55 | 33.93930 | -118.40309 | 125 ft | 10 kts | 263° |
| 2026-04-26 14:56 | 33.93920 | -118.40403 | 125 ft | 13 kts | 263° |
| 2026-04-26 14:56 | 33.93908 | -118.40525 | 123 ft | 16 kts | 263° |
| 2026-04-26 14:56 | 33.93896 | -118.40640 | 120 ft | 14 kts | 263° |
| 2026-04-26 14:56 | 33.93883 | -118.40771 | 125 ft | 17 kts | 263° |
| 2026-04-26 14:57 | 33.93868 | -118.40899 | 123 ft | 15 kts | 262° |
| 2026-04-26 14:57 | 33.93857 | -118.41009 | 125 ft | 14 kts | 263° |
| 2026-04-26 14:57 | 33.93853 | -118.41121 | 125 ft | 14 kts | 287° |
| 2026-04-26 14:57 | 33.93941 | -118.41174 | 122 ft | 16 kts | 351° |
| 2026-04-26 14:58 | 33.94060 | -118.41192 | 124 ft | 18 kts | 353° |
| 2026-04-26 14:58 | 33.94198 | -118.41212 | 122 ft | 21 kts | 353° |
| 2026-04-26 14:58 | 33.94353 | -118.41234 | 125 ft | 24 kts | 353° |
| 2026-04-26 14:58 | 33.94494 | -118.41255 | 123 ft | 11 kts | 353° |
| 2026-04-26 14:59 | 33.94582 | -118.41268 | 122 ft | 15 kts | 353° |
| 2026-04-26 14:59 | 33.94680 | -118.41283 | 122 ft | 12 kts | 353° |
| 2026-04-26 14:59 | 33.94764 | -118.41284 | 123 ft | 13 kts | 23° |
| 2026-04-26 14:59 | 33.94799 | -118.41220 | 124 ft | 16 kts | 75° |
| 2026-04-26 15:00 | 33.94820 | -118.41029 | 122 ft | 14 kts | 82° |
| 2026-04-26 15:00 | 33.94834 | -118.40899 | 122 ft | 18 kts | 83° |
| 2026-04-26 15:00 | 33.94851 | -118.40735 | 122 ft | 21 kts | 83° |
| 2026-04-26 15:00 | 33.94869 | -118.40553 | 125 ft | 15 kts | 82° |
| 2026-04-26 15:01 | 33.94885 | -118.40413 | 125 ft | 19 kts | 82° |
| 2026-04-26 15:01 | 33.94899 | -118.40282 | 122 ft | 15 kts | 83° |
| 2026-04-26 15:01 | 33.94914 | -118.40140 | 125 ft | 19 kts | 83° |
| 2026-04-26 15:01 | 33.94928 | -118.39998 | 125 ft | 12 kts | 83° |
| 2026-04-26 15:02 | 33.94979 | -118.39917 | 123 ft | 14 kts | 10° |
| 2026-04-26 15:02 | 33.95036 | -118.39993 | 122 ft | 7 kts | 263° |
| 2026-04-26 15:02 | 33.95036 | -118.39996 | 122 ft | 0 kts | 262° |
| 2026-04-26 15:03 | 33.95031 | -118.40035 | 123 ft | 22 kts | 262° |
| 2026-04-26 15:03 | 33.94970 | -118.40620 | 123 ft | 116 kts | 263° |
| 2026-04-26 15:03 | 33.94850 | -118.41896 | 214 ft | 185 kts | 264° |
| 2026-04-26 15:03 | 33.94711 | -118.43574 | 867 ft | 202 kts | 265° |
| 2026-04-26 15:04 | 33.94565 | -118.45219 | 1647 ft | 202 kts | 264° |
| 2026-04-26 15:04 | 33.94367 | -118.47011 | 2104 ft | 219 kts | 263° |
| 2026-04-26 15:04 | 33.94190 | -118.48858 | 2715 ft | 224 kts | 264° |
| 2026-04-26 15:04 | 33.94008 | -118.50717 | 3364 ft | 227 kts | 264° |
| 2026-04-26 15:05 | 33.93827 | -118.52590 | 4131 ft | 225 kts | 265° |
| 2026-04-26 15:05 | 33.93718 | -118.53863 | 4582 ft | 227 kts | 265° |
| 2026-04-26 15:05 | 33.93491 | -118.56369 | 5459 ft | 229 kts | 259° |
| 2026-04-26 15:05 | 33.92679 | -118.58036 | 6100 ft | 238 kts | 227° |
| 2026-04-26 15:06 | 33.91255 | -118.59102 | 6729 ft | 248 kts | 204° |
| 2026-04-26 15:06 | 33.89517 | -118.59372 | 7289 ft | 261 kts | 178° |
| 2026-04-26 15:06 | 33.87764 | -118.58639 | 7867 ft | 274 kts | 149° |
| 2026-04-26 15:06 | 33.86436 | -118.56974 | 8514 ft | 282 kts | 120° |
| 2026-04-26 15:07 | 33.86362 | -118.52467 | 9784 ft | 284 kts | 56° |
| 2026-04-26 15:07 | 33.87617 | -118.50570 | 10190 ft | 296 kts | 42° |
| 2026-04-26 15:07 | 33.89126 | -118.48723 | 10402 ft | 323 kts | 41° |
| 2026-04-26 15:08 | 33.90718 | -118.46752 | 10820 ft | 339 kts | 42° |
| 2026-04-26 15:08 | 33.92350 | -118.44664 | 11532 ft | 345 kts | 43° |
| 2026-04-26 15:08 | 33.93890 | -118.42418 | 12307 ft | 352 kts | 50° |
| 2026-04-26 15:08 | 33.95288 | -118.39966 | 13086 ft | 357 kts | 53° |
| 2026-04-26 15:09 | 33.96663 | -118.37440 | 13829 ft | 363 kts | 53° |
| 2026-04-26 15:09 | 33.98072 | -118.34884 | 14502 ft | 368 kts | 52° |
| 2026-04-26 15:09 | 33.99514 | -118.32313 | 15135 ft | 374 kts | 52° |
| 2026-04-26 15:09 | 34.00985 | -118.29711 | 15788 ft | 379 kts | 52° |
| 2026-04-26 15:10 | 34.02487 | -118.27065 | 16439 ft | 384 kts | 52° |
| 2026-04-26 15:10 | 34.03486 | -118.25307 | 16855 ft | 387 kts | 52° |
| 2026-04-26 15:10 | 34.05542 | -118.21682 | 17705 ft | 394 kts | 52° |
| 2026-04-26 15:10 | 34.07097 | -118.18935 | 18337 ft | 399 kts | 52° |
| 2026-04-26 15:11 | 34.08673 | -118.16149 | 18895 ft | 403 kts | 52° |
| 2026-04-26 15:11 | 34.10258 | -118.13345 | 19489 ft | 406 kts | 52° |
| 2026-04-26 15:11 | 34.11840 | -118.10543 | 20057 ft | 410 kts | 52° |
| 2026-04-26 15:11 | 34.13474 | -118.07649 | 20628 ft | 414 kts | 53° |
| 2026-04-26 15:12 | 34.15079 | -118.04803 | 21166 ft | 417 kts | 53° |
| 2026-04-26 15:12 | 34.16719 | -118.01893 | 21718 ft | 421 kts | 53° |
| 2026-04-26 15:12 | 34.18371 | -117.98958 | 22282 ft | 424 kts | 53° |
| 2026-04-26 15:12 | 34.20035 | -117.95999 | 22808 ft | 428 kts | 53° |
| 2026-04-26 15:13 | 34.21715 | -117.93009 | 23322 ft | 432 kts | 53° |
| 2026-04-26 15:13 | 34.23404 | -117.89999 | 23803 ft | 435 kts | 53° |
| 2026-04-26 15:13 | 34.25107 | -117.86963 | 24236 ft | 438 kts | 53° |
| 2026-04-26 15:13 | 34.26822 | -117.83901 | 24637 ft | 441 kts | 53° |
| 2026-04-26 15:14 | 34.28549 | -117.80817 | 25052 ft | 445 kts | 53° |
| 2026-04-26 15:14 | 34.30287 | -117.77709 | 25452 ft | 448 kts | 53° |
| 2026-04-26 15:14 | 34.32040 | -117.74574 | 25838 ft | 451 kts | 53° |
| 2026-04-26 15:14 | 34.33806 | -117.71415 | 26236 ft | 455 kts | 53° |
| 2026-04-26 15:15 | 34.35586 | -117.68231 | 26639 ft | 458 kts | 53° |
| 2026-04-26 15:15 | 34.37403 | -117.65110 | 27013 ft | 461 kts | 52° |
| 2026-04-26 15:15 | 34.39291 | -117.61961 | 27389 ft | 463 kts | 51° |
| 2026-04-26 15:15 | 34.41202 | -117.58804 | 27756 ft | 466 kts | 51° |
| 2026-04-26 15:16 | 34.43129 | -117.55618 | 28112 ft | 470 kts | 51° |
| 2026-04-26 15:16 | 34.45059 | -117.52413 | 28467 ft | 473 kts | 51° |
| 2026-04-26 15:16 | 34.46998 | -117.49175 | 28824 ft | 476 kts | 51° |
| 2026-04-26 15:16 | 34.48946 | -117.45909 | 29174 ft | 479 kts | 51° |
| 2026-04-26 15:17 | 34.50898 | -117.42626 | 29513 ft | 481 kts | 51° |
| 2026-04-26 15:17 | 34.52198 | -117.40437 | 29737 ft | 483 kts | 51° |
| 2026-04-26 15:17 | 34.54829 | -117.36000 | 30137 ft | 486 kts | 51° |
| 2026-04-26 15:17 | 34.56813 | -117.32650 | 30390 ft | 489 kts | 51° |
| 2026-04-26 15:18 | 34.58805 | -117.29286 | 30640 ft | 492 kts | 51° |
| 2026-04-26 15:18 | 34.60804 | -117.25905 | 30896 ft | 494 kts | 51° |
| 2026-04-26 15:18 | 34.63642 | -117.21100 | 31344 ft | 494 kts | 51° |
| 2026-04-26 15:19 | 34.65618 | -117.17751 | 31675 ft | 494 kts | 51° |
| 2026-04-26 15:19 | 34.67623 | -117.14350 | 31953 ft | 495 kts | 51° |
| 2026-04-26 15:19 | 34.69633 | -117.10940 | 32227 ft | 496 kts | 51° |
| 2026-04-26 15:19 | 34.71644 | -117.07522 | 32509 ft | 497 kts | 51° |
| 2026-04-26 15:20 | 34.73653 | -117.04105 | 32787 ft | 498 kts | 52° |
| 2026-04-26 15:20 | 34.75668 | -117.00674 | 33071 ft | 499 kts | 51° |
| 2026-04-26 15:20 | 34.77690 | -116.97229 | 33348 ft | 500 kts | 52° |
| 2026-04-26 15:20 | 34.79710 | -116.93783 | 33628 ft | 501 kts | 52° |
| 2026-04-26 15:21 | 34.81737 | -116.90321 | 33906 ft | 502 kts | 52° |
| 2026-04-26 15:21 | 34.83764 | -116.86855 | 34140 ft | 503 kts | 52° |
| 2026-04-26 15:21 | 34.85794 | -116.83381 | 34397 ft | 503 kts | 52° |
| 2026-04-26 15:21 | 34.87797 | -116.79951 | 34623 ft | 503 kts | 52° |
| 2026-04-26 15:22 | 34.89825 | -116.76475 | 34839 ft | 504 kts | 52° |
| 2026-04-26 15:22 | 34.91873 | -116.72991 | 34874 ft | 507 kts | 50° |
| 2026-04-26 15:22 | 34.96482 | -116.66548 | 34865 ft | 502 kts | 43° |
| 2026-04-26 15:23 | 35.01279 | -116.60406 | 34854 ft | 497 kts | 43° |
| 2026-04-26 15:23 | 35.06022 | -116.54281 | 34846 ft | 496 kts | 43° |
| 2026-04-26 15:24 | 35.10749 | -116.48070 | 35103 ft | 501 kts | 44° |
| 2026-04-26 15:24 | 35.13095 | -116.44964 | 35402 ft | 499 kts | 44° |
| 2026-04-26 15:24 | 35.15453 | -116.41833 | 35695 ft | 497 kts | 44° |
| 2026-04-26 15:25 | 35.17801 | -116.38715 | 35903 ft | 498 kts | 44° |
| 2026-04-26 15:25 | 35.19359 | -116.36646 | 36045 ft | 498 kts | 44° |
| 2026-04-26 15:25 | 35.22470 | -116.32512 | 36340 ft | 498 kts | 44° |
| 2026-04-26 15:25 | 35.24815 | -116.29394 | 36565 ft | 498 kts | 44° |
| 2026-04-26 15:26 | 35.27168 | -116.26262 | 36781 ft | 497 kts | 44° |
| 2026-04-26 15:26 | 35.29517 | -116.23136 | 36825 ft | 501 kts | 44° |
| 2026-04-26 15:26 | 35.34272 | -116.16796 | 36835 ft | 508 kts | 45° |
| 2026-04-26 15:27 | 35.39045 | -116.10419 | 36840 ft | 513 kts | 45° |
| 2026-04-26 15:27 | 35.43879 | -116.03946 | 36834 ft | 515 kts | 45° |
| 2026-04-26 15:28 | 35.48719 | -115.97452 | 36841 ft | 516 kts | 45° |
| 2026-04-26 15:28 | 35.53521 | -115.90995 | 36820 ft | 506 kts | 45° |
| 2026-04-26 15:29 | 35.58265 | -115.84607 | 36829 ft | 506 kts | 45° |
| 2026-04-26 15:30 | 35.67695 | -115.71818 | 36835 ft | 507 kts | 45° |
| 2026-04-26 15:30 | 35.72399 | -115.65339 | 36835 ft | 508 kts | 45° |
| 2026-04-26 15:31 | 35.79468 | -115.55589 | 36836 ft | 509 kts | 45° |
| 2026-04-26 15:32 | 35.84992 | -115.47963 | 36830 ft | 511 kts | 45° |
| 2026-04-26 15:32 | 35.91296 | -115.39238 | 36832 ft | 512 kts | 45° |
| 2026-04-26 15:33 | 35.96034 | -115.32664 | 36834 ft | 513 kts | 45° |
| 2026-04-26 15:33 | 36.00768 | -115.26081 | 36834 ft | 513 kts | 45° |
| 2026-04-26 15:34 | 36.05497 | -115.19484 | 36808 ft | 513 kts | 47° |
| 2026-04-26 15:34 | 36.09336 | -115.12097 | 36797 ft | 516 kts | 66° |
| 2026-04-26 15:35 | 36.11857 | -115.03794 | 36798 ft | 515 kts | 70° |
| 2026-04-26 15:35 | 36.14292 | -114.95450 | 36734 ft | 515 kts | 69° |
| 2026-04-26 15:36 | 36.16803 | -114.87180 | 36727 ft | 513 kts | 69° |
| 2026-04-26 15:36 | 36.19325 | -114.78925 | 36721 ft | 512 kts | 69° |
| 2026-04-26 15:37 | 36.21424 | -114.72087 | 36709 ft | 511 kts | 69° |
| 2026-04-26 15:37 | 36.23950 | -114.63854 | 36701 ft | 510 kts | 69° |
| 2026-04-26 15:38 | 36.26458 | -114.55645 | 36695 ft | 509 kts | 69° |
| 2026-04-26 15:38 | 36.28958 | -114.47433 | 36694 ft | 508 kts | 69° |
| 2026-04-26 15:39 | 36.31443 | -114.39243 | 36695 ft | 507 kts | 69° |
| 2026-04-26 15:39 | 36.33503 | -114.32437 | 36702 ft | 507 kts | 70° |
| 2026-04-26 15:40 | 36.36378 | -114.22912 | 36694 ft | 507 kts | 70° |
| 2026-04-26 15:40 | 36.38847 | -114.14707 | 36702 ft | 508 kts | 70° |
| 2026-04-26 15:41 | 36.41312 | -114.06491 | 36710 ft | 507 kts | 70° |
| 2026-04-26 15:41 | 36.43771 | -113.98269 | 36707 ft | 508 kts | 70° |
| 2026-04-26 15:42 | 36.46223 | -113.90046 | 36715 ft | 508 kts | 70° |
| 2026-04-26 15:42 | 36.48678 | -113.81790 | 36709 ft | 510 kts | 70° |
| 2026-04-26 15:43 | 36.51133 | -113.73511 | 36713 ft | 511 kts | 70° |
| 2026-04-26 15:44 | 36.54817 | -113.61037 | 36715 ft | 513 kts | 70° |
| 2026-04-26 15:44 | 36.58481 | -113.48579 | 36721 ft | 514 kts | 71° |
| 2026-04-26 15:45 | 36.62157 | -113.36023 | 36715 ft | 515 kts | 71° |
| 2026-04-26 15:46 | 36.65812 | -113.23420 | 36729 ft | 516 kts | 71° |
| 2026-04-26 15:46 | 36.67825 | -113.16426 | 36736 ft | 516 kts | 71° |
| 2026-04-26 15:47 | 36.71860 | -113.02368 | 36777 ft | 516 kts | 71° |
| 2026-04-26 15:48 | 36.74258 | -112.93986 | 36782 ft | 516 kts | 71° |
| 2026-04-26 15:48 | 36.76663 | -112.85551 | 36781 ft | 515 kts | 71° |
| 2026-04-26 15:49 | 36.79046 | -112.77170 | 36766 ft | 512 kts | 71° |
| 2026-04-26 15:49 | 36.81424 | -112.68774 | 36757 ft | 514 kts | 71° |
| 2026-04-26 15:50 | 36.83807 | -112.60339 | 36743 ft | 516 kts | 71° |
| 2026-04-26 15:50 | 36.86191 | -112.51874 | 36741 ft | 517 kts | 71° |
| 2026-04-26 15:51 | 36.88564 | -112.43421 | 36730 ft | 518 kts | 71° |
| 2026-04-26 15:51 | 36.90947 | -112.34938 | 36736 ft | 517 kts | 71° |
| 2026-04-26 15:52 | 36.93325 | -112.26457 | 36730 ft | 516 kts | 71° |
| 2026-04-26 15:52 | 36.95691 | -112.18001 | 36729 ft | 514 kts | 71° |
| 2026-04-26 15:53 | 36.98041 | -112.09570 | 36727 ft | 513 kts | 72° |
| 2026-04-26 15:53 | 37.00379 | -112.01155 | 36717 ft | 511 kts | 71° |
| 2026-04-26 15:54 | 37.02688 | -111.92821 | 36717 ft | 510 kts | 72° |
| 2026-04-26 15:54 | 37.05001 | -111.84438 | 36723 ft | 509 kts | 72° |
| 2026-04-26 15:55 | 37.07309 | -111.76051 | 36734 ft | 509 kts | 72° |
| 2026-04-26 15:55 | 37.09608 | -111.67671 | 36746 ft | 509 kts | 72° |
| 2026-04-26 15:56 | 37.11905 | -111.59273 | 36763 ft | 510 kts | 72° |
| 2026-04-26 15:56 | 37.14184 | -111.50911 | 36754 ft | 511 kts | 72° |
| 2026-04-26 15:57 | 37.16477 | -111.42471 | 36765 ft | 512 kts | 72° |
| 2026-04-26 15:57 | 37.18772 | -111.33997 | 36740 ft | 513 kts | 72° |
| 2026-04-26 15:58 | 37.21066 | -111.25503 | 36705 ft | 514 kts | 72° |
| 2026-04-26 15:58 | 37.23823 | -111.17205 | 36705 ft | 516 kts | 64° |
| 2026-04-26 15:59 | 37.27062 | -111.09211 | 36672 ft | 517 kts | 63° |
| 2026-04-26 15:59 | 37.30342 | -111.01169 | 36681 ft | 516 kts | 63° |
| 2026-04-26 16:00 | 37.33569 | -110.93109 | 36660 ft | 516 kts | 64° |
| 2026-04-26 16:00 | 37.36764 | -110.85035 | 36664 ft | 516 kts | 64° |
| 2026-04-26 16:01 | 37.39948 | -110.76951 | 36665 ft | 515 kts | 64° |
| 2026-04-26 16:01 | 37.43108 | -110.68916 | 36656 ft | 515 kts | 64° |
| 2026-04-26 16:02 | 37.46281 | -110.60836 | 36680 ft | 515 kts | 64° |
| 2026-04-26 16:02 | 37.49452 | -110.52738 | 36677 ft | 515 kts | 64° |
| 2026-04-26 16:03 | 37.52615 | -110.44639 | 36680 ft | 515 kts | 64° |
| 2026-04-26 16:03 | 37.55771 | -110.36540 | 36677 ft | 515 kts | 64° |
| 2026-04-26 16:04 | 37.58920 | -110.28433 | 36682 ft | 515 kts | 64° |
| 2026-04-26 16:04 | 37.62069 | -110.20308 | 36693 ft | 515 kts | 64° |
| 2026-04-26 16:05 | 37.65209 | -110.12187 | 36711 ft | 514 kts | 64° |
| 2026-04-26 16:05 | 37.68318 | -110.04121 | 36716 ft | 515 kts | 64° |
| 2026-04-26 16:06 | 37.71448 | -109.95980 | 36722 ft | 515 kts | 65° |
| 2026-04-26 16:06 | 37.74572 | -109.87834 | 36732 ft | 515 kts | 65° |
| 2026-04-26 16:07 | 37.77696 | -109.79669 | 36757 ft | 516 kts | 65° |
| 2026-04-26 16:07 | 37.80818 | -109.71482 | 36767 ft | 517 kts | 65° |
| 2026-04-26 16:08 | 37.83939 | -109.63278 | 36770 ft | 517 kts | 65° |
| 2026-04-26 16:08 | 37.87054 | -109.55069 | 36767 ft | 517 kts | 65° |
| 2026-04-26 16:09 | 37.90143 | -109.46907 | 36759 ft | 517 kts | 65° |
| 2026-04-26 16:09 | 37.93243 | -109.38695 | 36742 ft | 516 kts | 65° |
| 2026-04-26 16:10 | 37.96335 | -109.30480 | 36743 ft | 516 kts | 65° |
| 2026-04-26 16:10 | 37.99417 | -109.22269 | 36741 ft | 516 kts | 65° |
| 2026-04-26 16:11 | 38.02491 | -109.14057 | 36745 ft | 516 kts | 65° |
| 2026-04-26 16:11 | 38.05563 | -109.05828 | 36742 ft | 516 kts | 65° |
| 2026-04-26 16:12 | 38.08625 | -108.97605 | 36744 ft | 515 kts | 65° |
| 2026-04-26 16:12 | 38.13281 | -108.85420 | 36111 ft | 506 kts | 64° |
| 2026-04-26 16:13 | 38.14849 | -108.81476 | 35423 ft | 509 kts | 64° |
| 2026-04-26 16:13 | 38.16460 | -108.77430 | 34701 ft | 513 kts | 64° |
| 2026-04-26 16:13 | 38.18066 | -108.73378 | 34043 ft | 515 kts | 64° |
| 2026-04-26 16:13 | 38.19674 | -108.69299 | 33353 ft | 516 kts | 64° |
| 2026-04-26 16:14 | 38.21276 | -108.65215 | 32632 ft | 516 kts | 64° |
| 2026-04-26 16:14 | 38.22874 | -108.61126 | 32031 ft | 515 kts | 64° |
| 2026-04-26 16:14 | 38.26046 | -108.52988 | 30725 ft | 513 kts | 64° |
| 2026-04-26 16:15 | 38.27629 | -108.48919 | 30052 ft | 513 kts | 64° |
| 2026-04-26 16:15 | 38.29210 | -108.44849 | 29291 ft | 512 kts | 64° |
| 2026-04-26 16:15 | 38.30786 | -108.40788 | 28450 ft | 511 kts | 64° |
| 2026-04-26 16:16 | 38.33935 | -108.32660 | 26662 ft | 512 kts | 65° |
| 2026-04-26 16:16 | 38.35501 | -108.28610 | 26162 ft | 505 kts | 65° |
| 2026-04-26 16:16 | 38.37053 | -108.24593 | 26032 ft | 507 kts | 65° |
| 2026-04-26 16:16 | 38.38609 | -108.20555 | 25910 ft | 504 kts | 65° |
| 2026-04-26 16:17 | 38.40126 | -108.16619 | 25815 ft | 486 kts | 65° |
| 2026-04-26 16:17 | 38.41594 | -108.12805 | 25790 ft | 468 kts | 65° |
| 2026-04-26 16:17 | 38.43000 | -108.09144 | 25790 ft | 454 kts | 65° |
| 2026-04-26 16:17 | 38.44387 | -108.05528 | 25835 ft | 455 kts | 65° |
| 2026-04-26 16:18 | 38.45768 | -108.01923 | 25845 ft | 458 kts | 65° |
| 2026-04-26 16:18 | 38.48538 | -107.94635 | 25858 ft | 456 kts | 65° |
| 2026-04-26 16:19 | 38.51285 | -107.87353 | 25861 ft | 454 kts | 65° |
| 2026-04-26 16:19 | 38.52653 | -107.83721 | 25862 ft | 454 kts | 65° |
| 2026-04-26 16:19 | 38.54924 | -107.77686 | 25860 ft | 454 kts | 65° |
| 2026-04-26 16:20 | 38.56752 | -107.72822 | 25844 ft | 454 kts | 65° |
| 2026-04-26 16:20 | 38.59482 | -107.65542 | 25812 ft | 453 kts | 65° |
| 2026-04-26 16:20 | 38.60837 | -107.61925 | 25801 ft | 453 kts | 65° |
| 2026-04-26 16:21 | 38.62203 | -107.58272 | 25794 ft | 453 kts | 65° |
| 2026-04-26 16:21 | 38.63560 | -107.54638 | 25790 ft | 453 kts | 65° |
| 2026-04-26 16:21 | 38.64920 | -107.50993 | 25777 ft | 454 kts | 65° |
| 2026-04-26 16:21 | 38.66282 | -107.47350 | 25765 ft | 454 kts | 65° |
| 2026-04-26 16:22 | 38.67639 | -107.43760 | 25763 ft | 454 kts | 64° |
| 2026-04-26 16:22 | 38.69018 | -107.40127 | 25785 ft | 453 kts | 64° |
| 2026-04-26 16:22 | 38.70396 | -107.36499 | 25759 ft | 454 kts | 64° |
| 2026-04-26 16:22 | 38.71774 | -107.32864 | 25761 ft | 453 kts | 64° |
| 2026-04-26 16:23 | 38.73149 | -107.29230 | 25767 ft | 453 kts | 64° |
| 2026-04-26 16:23 | 38.74520 | -107.25598 | 25772 ft | 453 kts | 64° |
| 2026-04-26 16:23 | 38.75889 | -107.21963 | 25782 ft | 453 kts | 64° |
| 2026-04-26 16:23 | 38.77257 | -107.18326 | 25782 ft | 452 kts | 64° |
| 2026-04-26 16:24 | 38.78602 | -107.14747 | 25766 ft | 437 kts | 64° |
| 2026-04-26 16:24 | 38.79899 | -107.11290 | 25763 ft | 422 kts | 64° |
| 2026-04-26 16:24 | 38.81146 | -107.07960 | 25755 ft | 408 kts | 64° |
| 2026-04-26 16:24 | 38.82360 | -107.04717 | 25762 ft | 398 kts | 64° |
| 2026-04-26 16:25 | 38.83544 | -107.01552 | 25765 ft | 400 kts | 64° |
| 2026-04-26 16:25 | 38.84760 | -106.98298 | 25806 ft | 409 kts | 64° |
| 2026-04-26 16:25 | 38.86008 | -106.94956 | 25897 ft | 423 kts | 64° |
| 2026-04-26 16:25 | 38.87296 | -106.91501 | 25994 ft | 437 kts | 64° |
| 2026-04-26 16:26 | 38.88628 | -106.87925 | 26095 ft | 450 kts | 64° |
| 2026-04-26 16:26 | 38.89548 | -106.85452 | 26227 ft | 457 kts | 64° |
| 2026-04-26 16:26 | 38.90923 | -106.81748 | 26602 ft | 461 kts | 64° |
| 2026-04-26 16:26 | 38.92284 | -106.78080 | 26758 ft | 463 kts | 64° |
| 2026-04-26 16:27 | 38.93668 | -106.74346 | 26761 ft | 462 kts | 64° |
| 2026-04-26 16:27 | 38.95053 | -106.70603 | 26759 ft | 465 kts | 64° |
| 2026-04-26 16:27 | 38.96443 | -106.66842 | 26750 ft | 465 kts | 64° |
| 2026-04-26 16:27 | 38.97829 | -106.63090 | 26767 ft | 465 kts | 64° |
| 2026-04-26 16:28 | 38.99216 | -106.59329 | 26765 ft | 463 kts | 63° |
| 2026-04-26 16:28 | 39.00579 | -106.55626 | 26484 ft | 455 kts | 64° |
| 2026-04-26 16:28 | 39.01923 | -106.51959 | 25994 ft | 453 kts | 64° |
| 2026-04-26 16:28 | 39.03265 | -106.48291 | 25432 ft | 452 kts | 64° |
| 2026-04-26 16:29 | 39.04601 | -106.44633 | 24932 ft | 451 kts | 64° |
| 2026-04-26 16:29 | 39.05928 | -106.40996 | 24458 ft | 447 kts | 64° |
| 2026-04-26 16:29 | 39.07246 | -106.37380 | 23988 ft | 444 kts | 64° |
| 2026-04-26 16:29 | 39.08553 | -106.33792 | 23579 ft | 440 kts | 64° |
| 2026-04-26 16:30 | 39.09844 | -106.30244 | 23127 ft | 436 kts | 64° |
| 2026-04-26 16:30 | 39.11104 | -106.26775 | 22907 ft | 434 kts | 64° |
| 2026-04-26 16:30 | 39.12386 | -106.23243 | 22890 ft | 436 kts | 64° |
| 2026-04-26 16:30 | 39.13664 | -106.19719 | 22870 ft | 432 kts | 64° |
| 2026-04-26 16:31 | 39.14929 | -106.16224 | 22807 ft | 427 kts | 64° |
| 2026-04-26 16:31 | 39.16173 | -106.12778 | 22402 ft | 422 kts | 65° |
| 2026-04-26 16:31 | 39.17404 | -106.09358 | 21972 ft | 417 kts | 65° |
| 2026-04-26 16:31 | 39.18611 | -106.05998 | 21650 ft | 409 kts | 65° |
| 2026-04-26 16:32 | 39.19796 | -106.02696 | 21286 ft | 404 kts | 65° |
| 2026-04-26 16:32 | 39.20972 | -105.99416 | 20869 ft | 401 kts | 65° |
| 2026-04-26 16:32 | 39.22143 | -105.96150 | 20805 ft | 405 kts | 65° |
| 2026-04-26 16:32 | 39.23324 | -105.92849 | 20757 ft | 405 kts | 65° |
| 2026-04-26 16:33 | 39.24496 | -105.89578 | 20616 ft | 397 kts | 65° |
| 2026-04-26 16:33 | 39.25639 | -105.86406 | 20262 ft | 393 kts | 65° |
| 2026-04-26 16:33 | 39.26789 | -105.83220 | 19811 ft | 392 kts | 65° |
| 2026-04-26 16:33 | 39.27936 | -105.80038 | 19369 ft | 390 kts | 65° |
| 2026-04-26 16:34 | 39.29070 | -105.76884 | 18996 ft | 387 kts | 65° |
| 2026-04-26 16:34 | 39.30203 | -105.73731 | 18758 ft | 383 kts | 65° |
| 2026-04-26 16:34 | 39.31338 | -105.70568 | 18726 ft | 390 kts | 65° |
| 2026-04-26 16:34 | 39.32473 | -105.67402 | 18715 ft | 385 kts | 65° |
| 2026-04-26 16:35 | 39.33596 | -105.64299 | 18515 ft | 379 kts | 65° |
| 2026-04-26 16:35 | 39.34707 | -105.61262 | 18263 ft | 373 kts | 65° |
| 2026-04-26 16:35 | 39.35814 | -105.58240 | 18032 ft | 367 kts | 65° |
| 2026-04-26 16:35 | 39.36893 | -105.55288 | 17750 ft | 360 kts | 65° |
| 2026-04-26 16:36 | 39.37954 | -105.52380 | 17547 ft | 350 kts | 65° |
| 2026-04-26 16:36 | 39.38962 | -105.49611 | 17303 ft | 345 kts | 65° |
| 2026-04-26 16:36 | 39.39964 | -105.46853 | 17288 ft | 333 kts | 65° |
| 2026-04-26 16:36 | 39.40945 | -105.44153 | 17123 ft | 331 kts | 65° |
| 2026-04-26 16:37 | 39.41688 | -105.41342 | 17010 ft | 332 kts | 84° |
| 2026-04-26 16:37 | 39.41795 | -105.38357 | 17007 ft | 330 kts | 91° |
| 2026-04-26 16:37 | 39.41801 | -105.35414 | 16740 ft | 329 kts | 92° |
| 2026-04-26 16:37 | 39.41791 | -105.32410 | 16282 ft | 334 kts | 92° |
| 2026-04-26 16:38 | 39.41784 | -105.29409 | 15950 ft | 333 kts | 92° |
| 2026-04-26 16:38 | 39.41785 | -105.26441 | 15692 ft | 329 kts | 91° |
| 2026-04-26 16:38 | 39.41792 | -105.23486 | 15442 ft | 327 kts | 91° |
| 2026-04-26 16:38 | 39.41801 | -105.20548 | 15213 ft | 324 kts | 91° |
| 2026-04-26 16:39 | 39.41813 | -105.17644 | 14992 ft | 322 kts | 91° |
| 2026-04-26 16:39 | 39.41824 | -105.14791 | 14750 ft | 321 kts | 91° |
| 2026-04-26 16:39 | 39.41838 | -105.11911 | 14541 ft | 320 kts | 91° |
| 2026-04-26 16:39 | 39.41853 | -105.09037 | 14298 ft | 318 kts | 91° |
| 2026-04-26 16:40 | 39.41862 | -105.06191 | 14049 ft | 315 kts | 91° |
| 2026-04-26 16:40 | 39.41870 | -105.03374 | 13833 ft | 311 kts | 91° |
| 2026-04-26 16:40 | 39.41878 | -105.00593 | 13605 ft | 308 kts | 91° |
| 2026-04-26 16:40 | 39.41886 | -104.97839 | 13350 ft | 305 kts | 91° |
| 2026-04-26 16:41 | 39.41894 | -104.95114 | 13153 ft | 299 kts | 91° |
| 2026-04-26 16:41 | 39.42003 | -104.92467 | 13092 ft | 290 kts | 84° |
| 2026-04-26 16:41 | 39.42237 | -104.89943 | 13100 ft | 275 kts | 83° |
| 2026-04-26 16:41 | 39.42470 | -104.87554 | 13085 ft | 259 kts | 83° |
| 2026-04-26 16:42 | 39.42688 | -104.85271 | 13085 ft | 254 kts | 84° |
| 2026-04-26 16:42 | 39.42899 | -104.82994 | 13095 ft | 256 kts | 84° |
| 2026-04-26 16:42 | 39.43103 | -104.80726 | 13094 ft | 249 kts | 84° |
| 2026-04-26 16:42 | 39.43294 | -104.78587 | 13030 ft | 235 kts | 84° |
| 2026-04-26 16:43 | 39.43480 | -104.76520 | 12774 ft | 227 kts | 82° |
| 2026-04-26 16:43 | 39.43913 | -104.74560 | 12369 ft | 227 kts | 69° |
| 2026-04-26 16:43 | 39.44535 | -104.72687 | 11997 ft | 225 kts | 58° |
| 2026-04-26 16:43 | 39.45613 | -104.71272 | 11649 ft | 218 kts | 29° |
| 2026-04-26 16:44 | 39.46896 | -104.70374 | 11548 ft | 204 kts | 23° |
| 2026-04-26 16:44 | 39.48144 | -104.69586 | 11282 ft | 196 kts | 22° |
| 2026-04-26 16:44 | 39.49443 | -104.69104 | 10780 ft | 194 kts | 358° |
| 2026-04-26 16:44 | 39.50782 | -104.69127 | 10371 ft | 191 kts | 356° |
| 2026-04-26 16:45 | 39.52054 | -104.69119 | 10104 ft | 178 kts | 357° |
| 2026-04-26 16:45 | 39.53304 | -104.69106 | 10024 ft | 181 kts | 357° |
| 2026-04-26 16:45 | 39.54565 | -104.69091 | 10004 ft | 178 kts | 357° |
| 2026-04-26 16:45 | 39.55774 | -104.69076 | 9989 ft | 170 kts | 357° |
| 2026-04-26 16:46 | 39.56950 | -104.69062 | 9993 ft | 169 kts | 357° |
| 2026-04-26 16:46 | 39.58134 | -104.69049 | 10006 ft | 171 kts | 357° |
| 2026-04-26 16:46 | 39.59304 | -104.69035 | 9882 ft | 166 kts | 357° |
| 2026-04-26 16:46 | 39.60449 | -104.69022 | 9491 ft | 164 kts | 357° |
| 2026-04-26 16:47 | 39.61588 | -104.69009 | 9077 ft | 163 kts | 358° |
| 2026-04-26 16:47 | 39.62743 | -104.68996 | 9053 ft | 167 kts | 358° |
| 2026-04-26 16:47 | 39.63897 | -104.68982 | 9001 ft | 167 kts | 358° |
| 2026-04-26 16:47 | 39.65046 | -104.68968 | 8896 ft | 163 kts | 358° |
| 2026-04-26 16:48 | 39.66165 | -104.68955 | 8534 ft | 159 kts | 358° |
| 2026-04-26 16:48 | 39.67278 | -104.68942 | 8068 ft | 160 kts | 358° |
| 2026-04-26 16:48 | 39.68385 | -104.68930 | 7637 ft | 157 kts | 359° |
| 2026-04-26 16:48 | 39.69463 | -104.68917 | 7182 ft | 154 kts | 0° |
| 2026-04-26 16:49 | 39.70552 | -104.68904 | 7064 ft | 157 kts | 0° |
| 2026-04-26 16:49 | 39.71638 | -104.68892 | 7001 ft | 155 kts | 0° |
| 2026-04-26 16:49 | 39.72712 | -104.68879 | 6994 ft | 154 kts | 0° |
| 2026-04-26 16:49 | 39.73788 | -104.68867 | 6993 ft | 155 kts | 0° |
| 2026-04-26 16:50 | 39.74868 | -104.68854 | 6987 ft | 155 kts | 0° |
| 2026-04-26 16:50 | 39.75947 | -104.68841 | 6985 ft | 155 kts | 0° |
| 2026-04-26 16:50 | 39.77021 | -104.68829 | 6984 ft | 155 kts | 1° |
| 2026-04-26 16:50 | 39.78100 | -104.68816 | 7012 ft | 154 kts | 1° |
| 2026-04-26 16:51 | 39.79174 | -104.68802 | 6990 ft | 155 kts | 1° |
| 2026-04-26 16:51 | 39.80278 | -104.68776 | 6839 ft | 159 kts | 1° |
| 2026-04-26 16:51 | 39.81369 | -104.68774 | 6610 ft | 155 kts | 0° |
| 2026-04-26 16:51 | 39.82436 | -104.68802 | 6348 ft | 151 kts | 0° |
| 2026-04-26 16:52 | 39.83478 | -104.68822 | 6067 ft | 148 kts | 2° |
| 2026-04-26 16:52 | 39.84154 | -104.68803 | 5908 ft | 146 kts | 4° |
| 2026-04-26 16:52 | 39.85497 | -104.68747 | 5633 ft | 145 kts | 2° |
| 2026-04-26 16:52 | 39.86505 | -104.68757 | 5463 ft | 148 kts | 2° |
| 2026-04-26 16:53 | 39.87525 | -104.68721 | 5378 ft | 145 kts | 3° |
| 2026-04-26 16:53 | 39.88535 | -104.68682 | 5355 ft | 145 kts | 0° |
| 2026-04-26 16:53 | 39.89148 | -104.68692 | 5363 ft | 49 kts | 0° |
| 2026-04-26 16:53 | 39.89294 | -104.68612 | 5363 ft | 14 kts | 82° |
| 2026-04-26 16:54 | 39.89296 | -104.68543 | 5363 ft | 0 kts | 90° |
| 2026-04-26 16:55 | 39.89287 | -104.68508 | 5361 ft | 11 kts | 122° |
| 2026-04-26 16:55 | 39.89174 | -104.68476 | 5362 ft | 23 kts | 180° |
| 2026-04-26 16:55 | 39.89039 | -104.68477 | 5362 ft | 24 kts | 180° |
| 2026-04-26 16:55 | 39.88865 | -104.68480 | 5359 ft | 25 kts | 179° |
| 2026-04-26 16:56 | 39.88497 | -104.68481 | 5356 ft | 23 kts | 180° |
| 2026-04-26 16:56 | 39.88308 | -104.68484 | 5359 ft | 31 kts | 180° |
| 2026-04-26 16:56 | 39.88148 | -104.68486 | 5361 ft | 17 kts | 180° |
| 2026-04-26 16:57 | 39.88018 | -104.68486 | 5363 ft | 21 kts | 180° |
| 2026-04-26 16:57 | 39.87876 | -104.68487 | 5363 ft | 19 kts | 180° |
| 2026-04-26 16:57 | 39.87508 | -104.68494 | 5362 ft | 26 kts | 179° |
| 2026-04-26 16:58 | 39.87350 | -104.68492 | 5358 ft | 25 kts | 180° |
| 2026-04-26 16:58 | 39.87219 | -104.68493 | 5357 ft | 30 kts | 181° |
| 2026-04-26 16:58 | 39.86752 | -104.68501 | 5363 ft | 20 kts | 180° |
| 2026-04-26 16:59 | 39.86599 | -104.68505 | 5363 ft | 16 kts | 181° |
| 2026-04-26 16:59 | 39.86356 | -104.68509 | 5365 ft | 19 kts | 180° |
| 2026-04-26 17:00 | 39.86062 | -104.68499 | 5363 ft | 17 kts | 152° |
| 2026-04-26 17:00 | 39.86029 | -104.68120 | 5371 ft | 12 kts | 92° |
| 2026-04-26 17:00 | 39.86016 | -104.68046 | 5369 ft | 0 kts | 99° |
| 2026-04-26 17:01 | 39.86016 | -104.68045 | 5372 ft | 0 kts | 99° |
| 2026-04-26 17:01 | 39.86016 | -104.68041 | 5372 ft | 1 kts | 99° |
| 2026-04-26 17:02 | 39.86008 | -104.67924 | 5373 ft | 21 kts | 92° |
| 2026-04-26 17:02 | 39.86007 | -104.67714 | 5374 ft | 30 kts | 89° |
| 2026-04-26 17:02 | 39.86004 | -104.67470 | 5377 ft | 19 kts | 91° |
| 2026-04-26 17:02 | 39.86001 | -104.67299 | 5378 ft | 25 kts | 91° |
| 2026-04-26 17:03 | 39.85999 | -104.67226 | 5377 ft | 1 kts | 91° |
| 2026-04-26 17:03 | 39.85991 | -104.67156 | 5374 ft | 14 kts | 122° |
| 2026-04-26 17:03 | 39.85981 | -104.67144 | 5376 ft | 1 kts | 146° |
| 2026-04-26 17:03 | 39.85976 | -104.67141 | 5377 ft | 2 kts | 155° |
| 2026-04-26 17:04 | 39.85967 | -104.67138 | 5376 ft | 1 kts | 166° |
| 2026-04-26 17:04 | 39.85961 | -104.67136 | 5375 ft | 1 kts | 169° |
| 2026-04-26 17:04 | 39.85955 | -104.67136 | 5376 ft | 1 kts | 173° |
| 2026-04-26 17:04 | 39.85950 | -104.67135 | 5377 ft | 1 kts | 175° |
| 2026-04-26 17:05 | 39.85944 | -104.67135 | 5377 ft | 1 kts | 177° |
| 2026-04-26 17:05 | 39.85938 | -104.67135 | 5377 ft | 1 kts | 179° |
| 2026-04-26 17:05 | 39.85933 | -104.67135 | 5377 ft | 1 kts | 179° |
| 2026-04-26 17:05 | 39.85932 | -104.67135 | 5377 ft | 0 kts | 179° |